This is the latest recevied weather packets stored in our database for station/object TG5ALY-16. If no packets are shown the sender has not sent any weather packets the latest 10 day(s).
| Time | Temp. | Humidity | Pressure | Rain* | Wind** | Luminosity | Snow |
|---|---|---|---|---|---|---|---|
| 1777673105 | 23.33° C | 43% | 1012 hPa | 0 mm | - | - | - |
| 1777669501 | 23.33° C | 43% | 1012 hPa | 0 mm | - | - | - |
| 1777666498 | 22.22° C | 46% | 1013 hPa | 0 mm | - | - | - |
| 1777662894 | 23.33° C | 33% | 1013 hPa | 0 mm | - | - | - |
| 1777660491 | 22.78° C | 33% | 1012 hPa | 0 mm | - | - | - |
| 1777659290 | 22.22° C | 44% | 1013 hPa | 0 mm | - | - | - |
| 1777654485 | 19.44° C | 52% | 1014 hPa | 0 mm | - | - | - |
| 1777652682 | 18.89° C | 59% | 1014 hPa | 0 mm | - | - | - |
| 1777650881 | 18.33° C | 65% | 1014 hPa | 0 mm | - | - | - |
| 1777649679 | 17.22° C | 68% | 1014 hPa | 0 mm | - | - | - |
| 1777649078 | 17.22° C | 68% | 1015 hPa | 0 mm | - | - | - |
| 1777648478 | 16.67° C | 69% | 1015 hPa | 0 mm | - | - | - |
| 1777647877 | 16.67° C | 69% | 1015 hPa | 0 mm | - | - | - |
| 1777646075 | 13.89° C | 87% | 1015 hPa | 0 mm | - | - | - |
| 1777645474 | 13.33° C | 87% | 1016 hPa | 0 mm | - | - | - |
| 1777644874 | 12.22° C | 94% | 1016 hPa | 0 mm | - | - | - |
| 1777642471 | 11.67° C | 98% | 1016 hPa | 0 mm | - | - | - |
| 1777641871 | 11.11° C | 98% | 1016 hPa | 0 mm | - | - | - |
| 1777641270 | 11.11° C | 97% | 1016 hPa | 0 mm | - | - | - |
| 1777640069 | 11.11° C | 95% | 1016 hPa | 0 mm | - | - | - |
| 1777638867 | 11.11° C | 95% | 1016 hPa | 0 mm | - | - | - |
| 1777638267 | 11.11° C | 95% | 1016 hPa | 0 mm | - | - | - |
| 1777637666 | 11.11° C | 95% | 1016 hPa | 0 mm | - | - | - |
| 1777637065 | 11.11° C | 95% | 1016 hPa | 0 mm | - | - | - |
| 1777636465 | 11.11° C | 94% | 1016 hPa | 0 mm | - | - | - |
* Rain latest hour (hover to see other rain measurements)
** Current wind speed in m/s (hover to see current wind gust speed)